Guanajuato, Mexico

11:09 AM CDT on October 25, 2014 (GMT -0500)
De Guanajuato International | Change Station
CLOSE
Current Station
Airport
Location: Del Bajio,
Elevation: 5968 ft
Nearby Weather Stations

Elev 5968 ft 20.99 °N, 101.48 °W | Updated 27 minutes ago

Partly Cloudy
Partly Cloudy
66 °F
Feels Like 66 °F
N
0
Wind Variable Wind from North

Today
High -- | Low -- °F
--% Chance of Precip.
Yesterday
High -- | Low -- °F
Precip. -- in
7:44 AM 7:13 PM
Waxing Crescent, 3% visible
Pressure 30.43 in
Visibility 10.0 miles
Clouds Few 3000 ft
Dew Point 48 °F
Humidity 52%
Rainfall 0.00 in
Snow Depth Not available.
UV 5 out of 12
Pollen Not available.
Air Quality Not available.
Flu Activity Not available.
METAR MMLO 251542Z 00000KT 10SM FEW030 19/09 A3043 RMK 8/500

More Conditions Fewer Conditions

Pressure 30.43 in
Visibility 10.0 miles
Clouds Few 3000 ft
Dew Point 48 °F
Humidity 52%
Rainfall 0.00 in
Snow Depth Not available.
UV 5 out of 12
Pollen Not available.
Air Quality Not available.
Flu Activity Not available.
METAR MMLO 251542Z 00000KT 10SM FEW030 19/09 A3043 RMK 8/500

More Conditions Fewer Conditions

10-Day Weather Forecast

Almanac

Astronomy

Oct. 25, 2014 Rise Set
Actual Time 7:44 AM CDT 7:13 PM CDT
Civil Twilight 7:21 AM CDT 7:35 PM CDT
Nautical Twilight 6:55 AM CDT 8:02 PM CDT
Astronomical Twilight 6:29 AM CDT 8:28 PM CDT
Moon 9:16 AM CDT 8:48 PM CDT
Length of Visible Light 12h 14m
Length of Day
11h 28m
Tomorrow will be 1m 5s shorter.
Waxing Crescent, 3% of the Moon is Illuminated
Today
Waxing Crescent
Oct 30
First Quarter
Nov 6
Full
Nov 14
Last Quarter
Nov 22
New

Today's Extremes

Country Highs Country Lows

Community

WunderPhotos

Upload Photos

1,764,884 photos uploaded!

Nearby

Snow Depth

Not available.

Earthquake Activity

City Distance Mag. Time & Date
No recent earthquake activity has been reported nearby.
Minimum magnitude displayed is 2.5.

Coastal Water Temperatures

Place Temperature
No Stations Reporting

Nearby Weather Stations